Time;durP1;ratioP1;P1;durP2;ratioP2;P2;SDS_P1;SDS_P2;PMS_P1;PMS_P2;Temp;Humidity;BMP_temperature;BMP_pressure;BME280_temperature;BME280_humidity;BME280_pressure;Samples;Min_cycle;Max_cycle;Signal;HPM_P1;HPM_P2
2022/04/16 00:02:09;;;;;;;1.52;1.40;;;;;;;;;;5015104;28;20054;-68
2022/04/16 00:04:36;;;;;;;2.22;1.60;;;;;;;;;;5014046;28;20050;-68
2022/04/16 00:07:03;;;;;;;1.63;1.52;;;;;;;;;;4997515;28;20512;-68
2022/04/16 00:09:29;;;;;;;1.70;1.60;;;;;;;;;;4997939;28;20053;-69
2022/04/16 00:11:56;;;;;;;1.70;1.60;;;;;;;;;;4993995;28;20054;-69
2022/04/16 00:14:23;;;;;;;2.30;1.58;;;;;;;;;;4995551;28;20124;-68
2022/04/16 00:16:50;;;;;;;2.42;1.70;;;;;;;;;;5006298;28;20124;-68
2022/04/16 00:19:18;;;;;;;2.65;1.38;;;;;;;;;;5014923;28;20054;-68
2022/04/16 00:21:45;;;;;;;1.90;1.42;;;;;;;;;;5014642;28;20053;-68
2022/04/16 00:24:12;;;;;;;2.38;1.92;;;;;;;;;;4997352;28;20050;-68
2022/04/16 00:26:41;;;;;;;2.75;1.80;;;;;;;;;;5015025;28;20054;-69
2022/04/16 00:29:08;;;;;;;2.72;1.50;;;;;;;;;;4978255;28;20054;-68
2022/04/16 00:31:36;;;;;;;1.70;1.50;;;;;;;;;;4978593;28;20054;-68
2022/04/16 00:34:03;;;;;;;2.50;1.30;;;;;;;;;;5013449;28;20054;-68
2022/04/16 00:36:30;;;;;;;1.60;1.50;;;;;;;;;;4997132;28;20485;-68
2022/04/16 00:38:56;;;;;;;2.75;1.63;;;;;;;;;;5014330;28;20046;-68
2022/04/16 00:41:23;;;;;;;1.77;1.50;;;;;;;;;;5014372;28;20137;-68
2022/04/16 00:43:54;;;;;;;3.17;1.55;;;;;;;;;;5013193;28;20046;-69
2022/04/16 00:46:20;;;;;;;1.30;1.20;;;;;;;;;;4997743;28;20097;-68
2022/04/16 00:48:47;;;;;;;1.65;1.45;;;;;;;;;;5012846;28;20129;-67
2022/04/16 00:51:14;;;;;;;3.50;1.80;;;;;;;;;;5013006;28;20046;-68
2022/04/16 00:53:43;;;;;;;1.83;1.35;;;;;;;;;;4997427;28;20057;-67
2022/04/16 00:56:11;;;;;;;1.30;1.20;;;;;;;;;;5012324;28;20046;-68
2022/04/16 00:58:41;;;;;;;2.30;1.77;;;;;;;;;;5013065;28;20049;-68
2022/04/16 01:01:08;;;;;;;2.13;1.48;;;;;;;;;;4993232;28;20105;-68
2022/04/16 01:03:35;;;;;;;1.60;1.50;;;;;;;;;;4994502;28;20482;-68
2022/04/16 01:06:02;;;;;;;5.22;2.17;;;;;;;;;;5014341;28;20042;-68
2022/04/16 01:08:29;;;;;;;2.63;1.63;;;;;;;;;;5012959;28;20057;-69
2022/04/16 01:10:55;;;;;;;2.10;1.67;;;;;;;;;;5012789;28;20056;-68
2022/04/16 01:13:22;;;;;;;1.80;1.70;;;;;;;;;;5013825;28;20060;-68
2022/04/16 01:15:50;;;;;;;2.83;1.80;;;;;;;;;;5013677;28;20068;-69
2022/04/16 01:18:17;;;;;;;1.98;1.77;;;;;;;;;;5013867;28;20092;-68
2022/04/16 01:20:44;;;;;;;2.28;1.70;;;;;;;;;;5013844;28;20046;-68
2022/04/16 01:23:11;;;;;;;2.03;1.67;;;;;;;;;;5012579;28;20046;-69
2022/04/16 01:25:38;;;;;;;2.05;1.70;;;;;;;;;;5012840;28;20547;-68
2022/04/16 01:28:05;;;;;;;2.22;2.03;;;;;;;;;;5012733;28;20054;-68
2022/04/16 01:30:32;;;;;;;2.38;2.08;;;;;;;;;;4996751;28;20061;-69
2022/04/16 01:32:58;;;;;;;2.40;2.17;;;;;;;;;;5012544;28;20050;-68
2022/04/16 01:35:25;;;;;;;1.88;1.70;;;;;;;;;;5012404;28;20042;-69
2022/04/16 01:37:52;;;;;;;1.83;1.65;;;;;;;;;;5012273;28;20073;-69
2022/04/16 01:40:20;;;;;;;2.17;2.00;;;;;;;;;;5012207;28;20049;-68
2022/04/16 01:42:47;;;;;;;3.20;2.00;;;;;;;;;;5011958;28;20049;-69
2022/04/16 01:45:17;;;;;;;2.35;2.10;;;;;;;;;;5013519;28;20452;-69
2022/04/16 01:47:45;;;;;;;1.80;1.60;;;;;;;;;;4996727;28;20057;-68
2022/04/16 01:50:11;;;;;;;2.03;1.80;;;;;;;;;;5013169;28;20053;-69
2022/04/16 01:52:39;;;;;;;2.60;1.88;;;;;;;;;;5011952;28;20560;-69
2022/04/16 01:55:07;;;;;;;1.85;1.70;;;;;;;;;;4996054;28;20124;-68
2022/04/16 01:57:34;;;;;;;3.40;1.92;;;;;;;;;;4996015;28;20504;-69
2022/04/16 02:00:00;;;;;;;2.97;1.88;;;;;;;;;;5013002;28;20049;-69
2022/04/16 02:02:27;;;;;;;2.10;1.90;;;;;;;;;;5013092;28;20054;-68
2022/04/16 02:04:54;;;;;;;3.60;1.88;;;;;;;;;;4995830;28;20059;-68
2022/04/16 02:07:20;;;;;;;2.45;2.10;;;;;;;;;;5012853;28;20398;-69
2022/04/16 02:09:47;;;;;;;1.85;1.75;;;;;;;;;;5011688;28;20177;-69
2022/04/16 02:12:14;;;;;;;2.15;1.95;;;;;;;;;;5012636;28;20057;-69
2022/04/16 02:14:40;;;;;;;2.13;1.88;;;;;;;;;;5011764;28;20050;-69
2022/04/16 02:17:07;;;;;;;3.20;2.28;;;;;;;;;;5011536;28;20049;-68
2022/04/16 02:19:34;;;;;;;2.60;2.40;;;;;;;;;;5012571;28;20500;-68
2022/04/16 02:22:01;;;;;;;2.20;2.00;;;;;;;;;;5012344;28;20054;-69
2022/04/16 02:24:27;;;;;;;2.85;2.35;;;;;;;;;;5010894;28;20058;-68
2022/04/16 02:26:58;;;;;;;3.40;2.15;;;;;;;;;;5012823;28;20478;-68
2022/04/16 02:29:25;;;;;;;3.90;2.70;;;;;;;;;;4991971;28;20052;-69
2022/04/16 02:31:52;;;;;;;2.58;2.22;;;;;;;;;;4991823;28;20050;-69
2022/04/16 02:34:19;;;;;;;2.22;2.03;;;;;;;;;;4975781;28;20086;-69
2022/04/16 02:36:47;;;;;;;2.28;2.08;;;;;;;;;;4975980;28;20549;-69
2022/04/16 02:39:14;;;;;;;2.80;2.50;;;;;;;;;;4992921;28;20081;-69
2022/04/16 02:41:44;;;;;;;2.55;2.35;;;;;;;;;;5012306;28;20313;-69
2022/04/16 02:47:05;;;;;;;3.45;2.10;;;;;;;;;;4979866;28;20053;-69
2022/04/16 02:47:08;;;;;;;5.47;2.30;;;;;;;;;;5012424;28;20053;-68
2022/04/16 02:49:37;;;;;;;2.30;2.10;;;;;;;;;;5012055;28;20046;-68
2022/04/16 02:52:04;;;;;;;2.38;2.15;;;;;;;;;;4991563;28;20054;-68
2022/04/16 02:54:31;;;;;;;2.28;2.08;;;;;;;;;;5008015;28;20452;-69
2022/04/16 02:56:58;;;;;;;2.90;2.60;;;;;;;;;;4979952;28;20096;-68
2022/04/16 02:59:27;;;;;;;2.50;2.22;;;;;;;;;;5012516;28;20100;-68
2022/04/16 03:01:54;;;;;;;1.83;1.73;;;;;;;;;;5012564;28;20145;-68
2022/04/16 03:04:21;;;;;;;2.42;2.03;;;;;;;;;;5011171;28;20050;-68
2022/04/16 03:06:48;;;;;;;2.78;2.50;;;;;;;;;;5012705;28;20046;-69
2022/04/16 03:09:14;;;;;;;3.20;2.55;;;;;;;;;;5012781;28;20049;-68
2022/04/16 03:11:41;;;;;;;4.22;2.80;;;;;;;;;;4991004;28;20050;-68
2022/04/16 03:19:37;;;;;;;2.65;2.45;;;;;;;;;;5014608;28;20057;-68
2022/04/16 03:22:05;;;;;;;3.88;2.47;;;;;;;;;;5018373;28;20057;-69
2022/04/16 03:24:31;;;;;;;3.30;2.00;;;;;;;;;;4985344;28;20045;-68
2022/04/16 03:26:58;;;;;;;3.03;2.25;;;;;;;;;;5019873;28;20099;-68
2022/04/16 03:29:25;;;;;;;3.17;2.22;;;;;;;;;;4985878;28;20046;-68
2022/04/16 03:31:52;;;;;;;2.35;2.00;;;;;;;;;;5017414;28;20057;-68
2022/04/16 03:34:18;;;;;;;3.25;2.42;;;;;;;;;;5018666;28;20049;-68
2022/04/16 03:36:45;;;;;;;2.47;2.05;;;;;;;;;;5018257;28;20046;-68
2022/04/16 03:39:11;;;;;;;2.42;2.00;;;;;;;;;;5065070;23;20499;-67
2022/04/16 03:41:38;;;;;;;2.33;2.10;;;;;;;;;;5017938;28;20123;-68
2022/04/16 03:44:06;;;;;;;3.03;2.05;;;;;;;;;;5033221;28;20137;-69
2022/04/16 03:46:32;;;;;;;3.30;2.25;;;;;;;;;;5018374;28;20072;-67
2022/04/16 03:48:59;;;;;;;2.80;2.53;;;;;;;;;;5016984;28;20397;-68
2022/04/16 03:51:29;;;;;;;5.82;2.53;;;;;;;;;;5013724;28;20060;-68
2022/04/16 03:53:55;;;;;;;2.45;2.20;;;;;;;;;;5017939;28;20049;-68
2022/04/16 04:01:52;;;;;;;3.08;2.65;;;;;;;;;;5017911;28;20050;-67
2022/04/16 04:04:19;;;;;;;3.35;2.70;;;;;;;;;;5017982;28;20053;-68
2022/04/16 04:06:45;;;;;;;3.13;2.80;;;;;;;;;;5017847;28;20054;-68
2022/04/16 04:09:12;;;;;;;2.67;2.47;;;;;;;;;;5016383;28;20046;-67
2022/04/16 04:11:39;;;;;;;2.72;2.45;;;;;;;;;;5018109;28;20456;-67
2022/04/16 04:14:05;;;;;;;3.85;3.28;;;;;;;;;;5017591;28;20407;-67
2022/04/16 04:16:32;;;;;;;3.05;2.45;;;;;;;;;;5017928;28;20123;-68
2022/04/16 04:18:59;;;;;;;3.60;2.92;;;;;;;;;;5016140;28;20761;-66
2022/04/16 04:21:26;;;;;;;4.95;2.92;;;;;;;;;;5017862;28;20476;-67
2022/04/16 04:23:52;;;;;;;4.28;3.08;;;;;;;;;;5017776;28;20053;-67
2022/04/16 04:26:19;;;;;;;4.47;2.88;;;;;;;;;;5032277;28;20046;-68
2022/04/16 04:28:45;;;;;;;4.00;2.80;;;;;;;;;;5038527;28;20080;-67
2022/04/16 04:31:12;;;;;;;3.40;2.90;;;;;;;;;;5034271;28;20475;-68
2022/04/16 04:33:39;;;;;;;3.33;2.80;;;;;;;;;;5034449;28;20081;-67
2022/04/16 04:36:05;;;;;;;4.53;3.50;;;;;;;;;;5033796;28;20046;-67
2022/04/16 04:38:32;;;;;;;4.53;3.30;;;;;;;;;;5034282;28;20079;-67
2022/04/16 04:41:04;;;;;;;5.10;3.25;;;;;;;;;;5021928;28;20054;-68
2022/04/16 04:43:30;;;;;;;4.50;3.00;;;;;;;;;;5013050;28;20050;-67
2022/04/16 04:46:00;;;;;;;3.90;3.40;;;;;;;;;;5013124;28;20042;-67
2022/04/16 04:48:27;;;;;;;4.55;3.67;;;;;;;;;;5014283;28;20050;-68
2022/04/16 04:50:53;;;;;;;4.40;3.05;;;;;;;;;;5014489;28;20045;-67
2022/04/16 04:53:22;;;;;;;3.30;2.95;;;;;;;;;;5014483;28;20116;-67
2022/04/16 04:55:49;;;;;;;3.28;2.67;;;;;;;;;;5022348;28;20081;-68
2022/04/16 04:58:15;;;;;;;3.30;3.00;;;;;;;;;;5032086;28;20050;-68
2022/04/16 05:00:47;;;;;;;4.55;2.97;;;;;;;;;;5033397;28;20081;-68
2022/04/16 05:03:14;;;;;;;3.85;2.85;;;;;;;;;;5032103;28;20057;-68
2022/04/16 05:05:40;;;;;;;2.65;2.40;;;;;;;;;;5030706;28;20080;-68
2022/04/16 05:08:07;;;;;;;3.15;2.60;;;;;;;;;;5024872;28;20046;-68
2022/04/16 05:10:34;;;;;;;3.60;2.92;;;;;;;;;;5021259;28;20050;-68
2022/04/16 05:13:00;;;;;;;3.58;3.10;;;;;;;;;;5013951;28;20071;-68
2022/04/16 05:15:27;;;;;;;4.28;2.95;;;;;;;;;;5013331;28;20133;-69
2022/04/16 05:17:54;;;;;;;3.83;3.08;;;;;;;;;;5013336;28;20492;-68
2022/04/16 05:20:20;;;;;;;2.63;2.38;;;;;;;;;;5014028;28;20059;-68
2022/04/16 05:22:48;;;;;;;3.45;2.90;;;;;;;;;;5012340;28;20058;-68
2022/04/16 05:25:14;;;;;;;4.00;2.72;;;;;;;;;;5014055;28;20132;-68
2022/04/16 05:27:41;;;;;;;2.88;2.60;;;;;;;;;;5030369;28;20042;-68
2022/04/16 05:30:21;;;;;;;3.10;2.42;;;;;;;;;;5028644;28;20750;-68
2022/04/16 05:32:51;;;;;;;3.88;2.78;;;;;;;;;;5028608;28;20100;-67
2022/04/16 05:35:18;;;;;;;3.10;2.55;;;;;;;;;;5014028;28;20076;-68
2022/04/16 05:37:47;;;;;;;3.13;2.83;;;;;;;;;;5016554;28;20053;-68
2022/04/16 05:40:13;;;;;;;2.90;2.58;;;;;;;;;;5032640;28;20071;-67
2022/04/16 05:42:43;;;;;;;3.53;2.90;;;;;;;;;;5012313;28;20125;-69
2022/04/16 05:45:14;;;;;;;3.63;2.33;;;;;;;;;;4996327;28;20050;-67
2022/04/16 05:47:42;;;;;;;4.18;2.63;;;;;;;;;;4996151;28;20042;-67
2022/04/16 05:50:09;;;;;;;4.93;2.75;;;;;;;;;;5011793;28;20054;-67
2022/04/16 05:52:36;;;;;;;5.28;2.63;;;;;;;;;;5011782;28;20401;-68
2022/04/16 05:55:02;;;;;;;5.63;2.90;;;;;;;;;;4995504;28;20050;-67
2022/04/16 05:57:29;;;;;;;3.33;2.72;;;;;;;;;;5011873;28;20057;-66
2022/04/16 05:59:56;;;;;;;3.17;2.88;;;;;;;;;;5011973;28;20085;-67
2022/04/16 06:02:23;;;;;;;2.90;2.60;;;;;;;;;;5009391;28;20108;-67
2022/04/16 06:04:50;;;;;;;3.53;2.60;;;;;;;;;;5009775;28;20103;-67
2022/04/16 06:07:17;;;;;;;4.13;3.55;;;;;;;;;;5010947;28;20571;-67
2022/04/16 06:09:43;;;;;;;3.58;2.85;;;;;;;;;;5009598;28;20057;-67
2022/04/16 06:12:10;;;;;;;3.90;2.85;;;;;;;;;;5010812;28;20062;-67
2022/04/16 06:14:36;;;;;;;3.03;2.72;;;;;;;;;;5010430;28;20049;-66
2022/04/16 06:17:03;;;;;;;3.88;3.03;;;;;;;;;;5010091;28;20485;-67
2022/04/16 06:19:30;;;;;;;4.05;3.15;;;;;;;;;;5008157;28;20050;-67
2022/04/16 06:21:57;;;;;;;5.15;2.70;;;;;;;;;;5005464;28;20057;-67
2022/04/16 06:24:23;;;;;;;3.33;2.97;;;;;;;;;;4985811;28;20053;-70
2022/04/16 06:26:50;;;;;;;3.70;2.90;;;;;;;;;;5018825;28;20204;-67
2022/04/16 06:29:17;;;;;;;3.42;3.10;;;;;;;;;;5013102;28;20061;-67
2022/04/16 06:31:43;;;;;;;4.72;3.38;;;;;;;;;;5009627;28;20061;-68
2022/04/16 06:34:10;;;;;;;6.07;3.42;;;;;;;;;;5009120;28;20096;-68
2022/04/16 06:36:38;;;;;;;3.20;2.90;;;;;;;;;;5009380;28;20100;-68
2022/04/16 06:39:05;;;;;;;3.28;2.83;;;;;;;;;;5011112;28;20054;-68
2022/04/16 06:41:32;;;;;;;3.55;2.92;;;;;;;;;;4993614;28;20120;-68
2022/04/16 06:43:58;;;;;;;3.78;3.00;;;;;;;;;;5010175;28;20053;-68
2022/04/16 06:46:25;;;;;;;4.60;3.08;;;;;;;;;;5009085;28;20061;-67
2022/04/16 06:48:51;;;;;;;5.50;2.88;;;;;;;;;;5009474;28;20057;-68
2022/04/16 06:51:18;;;;;;;3.97;3.30;;;;;;;;;;5008316;28;20112;-68
2022/04/16 06:53:45;;;;;;;6.35;3.20;;;;;;;;;;5008522;28;20128;-68
2022/04/16 06:56:11;;;;;;;4.40;3.20;;;;;;;;;;5009903;28;20057;-68
2022/04/16 06:58:38;;;;;;;3.83;3.40;;;;;;;;;;5008748;28;20058;-68
2022/04/16 07:01:04;;;;;;;3.67;3.25;;;;;;;;;;5008408;28;20057;-68
2022/04/16 07:03:31;;;;;;;4.35;3.53;;;;;;;;;;5009577;28;20060;-68
2022/04/16 07:05:58;;;;;;;4.63;3.78;;;;;;;;;;5009589;28;20104;-67
2022/04/16 07:08:25;;;;;;;5.63;3.42;;;;;;;;;;4992489;28;20135;-68
2022/04/16 07:10:52;;;;;;;3.90;2.65;;;;;;;;;;5009814;28;20128;-68
2022/04/16 07:13:19;;;;;;;4.03;3.30;;;;;;;;;;5022939;28;20057;-68
2022/04/16 07:15:46;;;;;;;4.10;3.58;;;;;;;;;;5024339;28;20343;-68
2022/04/16 07:18:12;;;;;;;3.33;3.03;;;;;;;;;;5025700;28;20038;-71
2022/04/16 07:20:39;;;;;;;5.15;3.53;;;;;;;;;;5023248;28;20053;-68
2022/04/16 07:23:05;;;;;;;5.50;3.65;;;;;;;;;;5023543;28;20061;-69
2022/04/16 07:25:33;;;;;;;4.38;3.65;;;;;;;;;;5025536;28;20050;-69
2022/04/16 07:28:00;;;;;;;5.03;3.70;;;;;;;;;;5009663;28;20073;-71
2022/04/16 07:30:27;;;;;;;4.53;3.75;;;;;;;;;;5030657;28;20050;-69
2022/04/16 07:32:54;;;;;;;4.78;3.72;;;;;;;;;;5013535;28;20044;-69
2022/04/16 07:35:26;;;;;;;3.53;3.22;;;;;;;;;;5026706;28;20053;-69
2022/04/16 07:37:57;;;;;;;4.13;3.72;;;;;;;;;;5032410;28;20034;-69
2022/04/16 07:40:27;;;;;;;4.65;3.83;;;;;;;;;;5033696;28;20054;-69
2022/04/16 07:42:54;;;;;;;4.85;3.60;;;;;;;;;;5032979;28;20038;-68
2022/04/16 07:45:23;;;;;;;5.07;3.78;;;;;;;;;;5032935;28;20054;-67
2022/04/16 07:47:50;;;;;;;6.22;4.50;;;;;;;;;;5033864;28;20060;-67
2022/04/16 07:50:16;;;;;;;5.05;3.92;;;;;;;;;;5034554;28;20523;-69
2022/04/16 07:52:44;;;;;;;5.18;4.38;;;;;;;;;;5008129;28;20050;-72
2022/04/16 07:55:13;;;;;;;4.15;3.80;;;;;;;;;;5017449;28;20046;-73
2022/04/16 07:57:39;;;;;;;5.28;4.45;;;;;;;;;;5025607;28;20050;-73
2022/04/16 08:00:08;;;;;;;4.47;3.75;;;;;;;;;;5021931;28;20046;-71
2022/04/16 08:02:34;;;;;;;5.15;4.15;;;;;;;;;;5011038;28;20050;-68
2022/04/16 08:05:01;;;;;;;5.07;4.03;;;;;;;;;;5047901;28;20056;-68
2022/04/16 08:07:28;;;;;;;5.38;4.40;;;;;;;;;;5020693;28;20037;-71
2022/04/16 08:09:55;;;;;;;5.38;4.18;;;;;;;;;;5026162;28;20058;-74
2022/04/16 08:12:26;;;;;;;5.00;4.10;;;;;;;;;;5015558;28;20041;-77
2022/04/16 08:14:55;;;;;;;;;;;;;;;;;;5034058;28;20053;-76
2022/04/16 08:17:22;;;;;;;7.10;4.50;;;;;;;;;;5026192;28;19937;-76
2022/04/16 08:19:49;;;;;;;5.90;3.97;;;;;;;;;;5028478;28;20041;-76
2022/04/16 08:22:21;;;;;;;6.63;4.53;;;;;;;;;;5025238;28;20070;-74
2022/04/16 08:27:36;;;;;;;8.07;5.07;;;;;;;;;;5016265;28;20026;-75
2022/04/16 08:30:04;;;;;;;6.40;4.80;;;;;;;;;;5028970;28;20064;-76
2022/04/16 08:32:35;;;;;;;7.03;4.95;;;;;;;;;;5037387;28;20067;-67
2022/04/16 08:35:03;;;;;;;6.43;4.57;;;;;;;;;;5057810;28;20037;-66
2022/04/16 08:37:31;;;;;;;6.85;5.03;;;;;;;;;;5023772;28;20041;-67
2022/04/16 08:40:03;;;;;;;5.72;4.55;;;;;;;;;;5021215;28;20048;-68
2022/04/16 08:42:30;;;;;;;8.73;5.53;;;;;;;;;;5019921;28;20044;-73
2022/04/16 08:44:57;;;;;;;6.68;5.55;;;;;;;;;;5010861;28;20046;-69
2022/04/16 08:47:26;;;;;;;7.50;5.45;;;;;;;;;;5016368;28;20064;-72
2022/04/16 08:49:53;;;;;;;8.73;6.65;;;;;;;;;;5011680;28;20285;-70
2022/04/16 08:52:22;;;;;;;7.50;5.45;;;;;;;;;;5027092;28;20538;-73
2022/04/16 08:54:49;;;;;;;8.88;6.30;;;;;;;;;;5010613;28;20085;-72
2022/04/16 08:57:17;;;;;;;6.80;5.75;;;;;;;;;;5016546;28;20053;-73
2022/04/16 08:59:53;;;;;;;10.40;6.32;;;;;;;;;;5026690;28;20033;-71
2022/04/16 09:02:26;;;;;;;8.98;6.72;;;;;;;;;;5021486;28;20034;-69
2022/04/16 09:05:08;;;;;;;8.65;6.57;;;;;;;;;;5003412;28;20046;-71
2022/04/16 09:07:52;;;;;;;9.20;6.55;;;;;;;;;;5000833;28;20273;-67
2022/04/16 09:10:21;;;;;;;8.88;7.78;;;;;;;;;;5057336;28;20064;-70
2022/04/16 09:12:52;;;;;;;10.93;7.45;;;;;;;;;;5023991;28;20063;-75
2022/04/16 09:15:22;;;;;;;8.35;6.55;;;;;;;;;;5024698;28;20081;-75
2022/04/16 09:18:02;;;;;;;9.27;6.72;;;;;;;;;;4989304;28;20038;-71
2022/04/16 09:20:40;;;;;;;8.13;6.45;;;;;;;;;;5038471;28;20026;-72
2022/04/16 09:23:18;;;;;;;7.32;6.20;;;;;;;;;;5022418;28;20056;-76
2022/04/16 09:25:50;;;;;;;8.00;6.68;;;;;;;;;;5029353;28;20106;-72
2022/04/16 09:28:19;;;;;;;9.05;6.97;;;;;;;;;;5006250;28;20042;-70
2022/04/16 09:30:52;;;;;;;9.65;6.63;;;;;;;;;;5024785;28;20257;-70
2022/04/16 09:33:20;;;;;;;9.65;6.32;;;;;;;;;;5029073;28;20029;-73
2022/04/16 09:35:54;;;;;;;9.43;6.50;;;;;;;;;;5005268;28;20090;-73
2022/04/16 09:38:24;;;;;;;7.35;6.03;;;;;;;;;;5025662;28;20033;-73
2022/04/16 09:40:52;;;;;;;8.57;6.18;;;;;;;;;;5024355;28;20033;-72
2022/04/16 09:43:19;;;;;;;7.85;5.88;;;;;;;;;;5029960;23;20116;-74
2022/04/16 09:45:45;;;;;;;8.95;6.15;;;;;;;;;;5022694;28;20069;-74
2022/04/16 09:48:13;;;;;;;9.32;6.03;;;;;;;;;;5024452;28;20463;-74
2022/04/16 09:50:42;;;;;;;8.20;5.60;;;;;;;;;;5019766;28;20049;-68
2022/04/16 09:53:09;;;;;;;8.82;5.90;;;;;;;;;;5018294;28;20096;-69
2022/04/16 09:55:36;;;;;;;8.48;6.28;;;;;;;;;;5002010;28;20053;-69
2022/04/16 09:58:04;;;;;;;8.10;6.15;;;;;;;;;;4998420;28;20412;-70
2022/04/16 10:00:36;;;;;;;7.78;6.05;;;;;;;;;;5000320;28;20100;-69
2022/04/16 10:03:22;;;;;;;7.90;5.68;;;;;;;;;;5002816;28;20081;-69
2022/04/16 10:05:49;;;;;;;7.82;6.40;;;;;;;;;;5007139;28;20130;-67
2022/04/16 10:08:16;;;;;;;9.23;6.03;;;;;;;;;;4982984;28;20488;-67
2022/04/16 10:10:46;;;;;;;7.35;5.28;;;;;;;;;;4988841;28;20046;-68
2022/04/16 10:13:15;;;;;;;8.00;5.57;;;;;;;;;;5004476;28;20058;-69
2022/04/16 10:16:04;;;;;;;8.10;6.35;;;;;;;;;;4999134;28;20057;-69
2022/04/16 10:18:33;;;;;;;8.65;5.88;;;;;;;;;;4998414;28;20113;-71
2022/04/16 10:21:00;;;;;;;7.95;5.85;;;;;;;;;;5001790;28;20092;-72
2022/04/16 10:23:47;;;;;;;8.30;5.85;;;;;;;;;;5000466;28;20064;-72
2022/04/16 10:26:16;;;;;;;6.90;5.43;;;;;;;;;;5000726;28;20129;-64
2022/04/16 10:28:53;;;;;;;7.30;5.70;;;;;;;;;;4998540;28;20132;-65
2022/04/16 10:31:32;;;;;;;10.35;6.10;;;;;;;;;;5000954;28;20058;-64
2022/04/16 10:34:05;;;;;;;6.18;5.05;;;;;;;;;;5005088;28;20050;-65
2022/04/16 10:36:36;;;;;;;6.40;4.68;;;;;;;;;;5001501;28;20451;-67
2022/04/16 10:39:17;;;;;;;8.25;5.53;;;;;;;;;;5000000;28;20534;-65
2022/04/16 10:41:57;;;;;;;6.75;4.78;;;;;;;;;;4996631;28;20065;-66
2022/04/16 10:44:25;;;;;;;5.35;4.07;;;;;;;;;;5000246;28;20065;-66
2022/04/16 10:46:53;;;;;;;4.93;3.88;;;;;;;;;;5002404;28;20050;-74
2022/04/16 10:49:21;;;;;;;6.78;4.70;;;;;;;;;;5006251;28;20049;-66
2022/04/16 10:51:50;;;;;;;6.10;5.10;;;;;;;;;;5006165;28;20096;-66
2022/04/16 10:54:35;;;;;;;7.10;4.50;;;;;;;;;;4999714;28;20149;-66
2022/04/16 10:57:03;;;;;;;6.70;5.00;;;;;;;;;;4997271;28;20125;-70
2022/04/16 10:59:40;;;;;;;6.78;4.47;;;;;;;;;;4999477;28;20045;-68
2022/04/16 11:02:25;;;;;;;6.32;4.80;;;;;;;;;;4999684;28;20062;-68
2022/04/16 11:05:00;;;;;;;6.88;4.38;;;;;;;;;;4999460;28;20416;-73
2022/04/16 11:07:36;;;;;;;6.05;4.07;;;;;;;;;;4996733;28;20046;-74
2022/04/16 11:10:05;;;;;;;5.68;3.30;;;;;;;;;;5010330;28;20050;-73
2022/04/16 11:12:32;;;;;;;5.20;3.85;;;;;;;;;;5011740;28;20082;-75
2022/04/16 11:15:00;;;;;;;3.50;3.13;;;;;;;;;;5007221;28;20523;-67
2022/04/16 11:17:27;;;;;;;3.60;3.10;;;;;;;;;;5000805;28;20042;-73
2022/04/16 11:20:02;;;;;;;4.43;3.40;;;;;;;;;;5006726;28;20050;-68
2022/04/16 11:22:29;;;;;;;4.30;3.33;;;;;;;;;;4999577;28;20058;-68
2022/04/16 11:24:58;;;;;;;5.00;3.67;;;;;;;;;;4998306;28;20141;-71
2022/04/16 11:36:00;;;;;;;6.55;3.20;;;;;;;;;;5000327;28;20072;-70
2022/04/16 11:38:28;;;;;;;5.80;3.55;;;;;;;;;;5000195;28;20065;-69
2022/04/16 11:41:04;;;;;;;4.93;3.95;;;;;;;;;;4999785;28;20046;-71
2022/04/16 11:43:31;;;;;;;5.18;3.95;;;;;;;;;;5001290;28;20054;-71
2022/04/16 11:46:00;;;;;;;4.85;3.85;;;;;;;;;;5005967;28;20412;-74
2022/04/16 11:48:27;;;;;;;4.30;3.60;;;;;;;;;;5002615;28;20047;-74
2022/04/16 11:50:54;;;;;;;4.78;3.20;;;;;;;;;;4997473;28;20500;-73
2022/04/16 11:53:21;;;;;;;5.88;3.53;;;;;;;;;;5003214;28;20148;-72
2022/04/16 11:55:58;;;;;;;4.82;3.67;;;;;;;;;;5005039;28;20065;-72
2022/04/16 11:58:28;;;;;;;4.25;3.17;;;;;;;;;;5005916;28;20061;-74
2022/04/16 12:00:55;;;;;;;5.25;3.80;;;;;;;;;;4978044;28;20061;-71
2022/04/16 12:03:37;;;;;;;4.18;3.40;;;;;;;;;;5002360;28;20046;-72
2022/04/16 12:06:10;;;;;;;3.78;3.22;;;;;;;;;;4996968;28;20053;-73
2022/04/16 12:08:39;;;;;;;3.45;3.15;;;;;;;;;;5012583;28;20483;-70
2022/04/16 12:11:07;;;;;;;4.50;3.33;;;;;;;;;;5019279;28;20046;-72
2022/04/16 12:13:39;;;;;;;4.78;3.70;;;;;;;;;;5001940;28;20055;-72
2022/04/16 12:16:28;;;;;;;5.07;3.30;;;;;;;;;;5006086;28;20061;-76
2022/04/16 12:19:00;;;;;;;4.68;3.85;;;;;;;;;;5005573;28;20041;-73
2022/04/16 12:21:27;;;;;;;5.03;3.70;;;;;;;;;;5000190;28;20058;-71
2022/04/16 12:24:04;;;;;;;5.03;3.60;;;;;;;;;;5012972;28;20496;-71
2022/04/16 12:26:31;;;;;;;4.40;3.63;;;;;;;;;;4987533;28;20050;-72
2022/04/16 12:28:58;;;;;;;4.38;3.40;;;;;;;;;;5002820;28;20501;-70
2022/04/16 12:31:26;;;;;;;4.38;3.33;;;;;;;;;;5002043;28;20144;-72
2022/04/16 12:33:53;;;;;;;4.18;3.00;;;;;;;;;;5001642;28;20416;-72
2022/04/16 12:36:21;;;;;;;4.05;3.20;;;;;;;;;;4998421;28;20092;-68
2022/04/16 12:38:48;;;;;;;4.15;2.72;;;;;;;;;;4999812;28;20406;-65
2022/04/16 12:41:15;;;;;;;3.83;3.00;;;;;;;;;;5000769;28;20500;-67
2022/04/16 12:43:42;;;;;;;2.63;2.22;;;;;;;;;;5001000;28;20060;-67
2022/04/16 12:46:09;;;;;;;4.13;2.72;;;;;;;;;;5000718;28;20042;-67
2022/04/16 12:48:36;;;;;;;3.75;2.67;;;;;;;;;;5001319;28;20096;-67
2022/04/16 12:51:04;;;;;;;4.38;3.10;;;;;;;;;;4999744;28;20050;-67
2022/04/16 12:53:31;;;;;;;3.33;2.60;;;;;;;;;;5005802;28;20058;-67
2022/04/16 12:55:59;;;;;;;2.63;2.40;;;;;;;;;;4999191;28;20061;-67
2022/04/16 12:58:25;;;;;;;3.70;2.20;;;;;;;;;;5003844;28;20496;-67
2022/04/16 13:00:52;;;;;;;3.05;2.47;;;;;;;;;;4999538;28;20050;-67
2022/04/16 13:03:19;;;;;;;3.47;2.83;;;;;;;;;;5002271;28;20394;-67
2022/04/16 13:05:45;;;;;;;3.97;2.95;;;;;;;;;;4999691;28;20104;-67
2022/04/16 13:08:13;;;;;;;3.38;3.00;;;;;;;;;;5000668;28;20072;-67
2022/04/16 13:10:40;;;;;;;5.70;3.17;;;;;;;;;;4999713;28;20064;-67
2022/04/16 13:13:07;;;;;;;3.38;2.85;;;;;;;;;;5004502;28;20054;-67
2022/04/16 13:15:33;;;;;;;2.83;2.63;;;;;;;;;;5001428;28;20576;-67
2022/04/16 13:18:00;;;;;;;3.53;2.97;;;;;;;;;;5000848;28;20050;-67
2022/04/16 13:20:27;;;;;;;3.47;2.60;;;;;;;;;;4999873;28;20046;-67
2022/04/16 13:22:54;;;;;;;3.08;2.67;;;;;;;;;;5001501;28;20050;-69
2022/04/16 13:25:21;;;;;;;3.00;2.67;;;;;;;;;;4997214;28;20050;-71
2022/04/16 13:27:48;;;;;;;2.90;2.17;;;;;;;;;;5003710;28;20046;-72
2022/04/16 13:30:14;;;;;;;3.03;2.42;;;;;;;;;;5003742;28;20566;-74
2022/04/16 13:32:41;;;;;;;3.00;2.70;;;;;;;;;;4998978;28;20050;-72
2022/04/16 13:35:08;;;;;;;3.40;2.60;;;;;;;;;;5003818;28;20097;-74
2022/04/16 13:37:35;;;;;;;3.28;2.78;;;;;;;;;;5002354;28;20077;-72
2022/04/16 13:42:47;;;;;;;3.72;3.13;;;;;;;;;;4999938;28;20050;-71
2022/04/16 13:45:14;;;;;;;3.47;2.40;;;;;;;;;;5002548;28;20092;-70
2022/04/16 13:47:40;;;;;;;3.20;2.53;;;;;;;;;;5003035;28;20042;-74
2022/04/16 13:50:08;;;;;;;4.22;2.85;;;;;;;;;;4998946;28;20046;-74
2022/04/16 13:52:35;;;;;;;3.25;2.95;;;;;;;;;;4991229;28;20050;-76
2022/04/16 13:55:04;;;;;;;5.75;3.83;;;;;;;;;;5000605;28;20112;-75
2022/04/16 13:57:31;;;;;;;5.07;3.88;;;;;;;;;;5003924;28;20050;-76
2022/04/16 13:59:58;;;;;;;3.58;2.72;;;;;;;;;;4998379;28;20061;-68
2022/04/16 14:02:25;;;;;;;4.38;2.85;;;;;;;;;;4999856;28;20089;-67
2022/04/16 14:07:36;;;;;;;3.38;3.08;;;;;;;;;;4998313;28;20100;-67
2022/04/16 14:10:03;;;;;;;2.95;2.63;;;;;;;;;;5003370;28;20046;-67
2022/04/16 14:12:30;;;;;;;3.22;2.92;;;;;;;;;;4998047;28;20421;-67
2022/04/16 14:14:57;;;;;;;3.35;2.70;;;;;;;;;;5003408;28;20049;-67
2022/04/16 14:17:24;;;;;;;3.03;2.50;;;;;;;;;;5000193;28;20050;-67
2022/04/16 14:19:51;;;;;;;2.47;2.28;;;;;;;;;;5001191;28;20092;-68
2022/04/16 14:22:17;;;;;;;2.95;2.58;;;;;;;;;;4998454;28;20050;-67
2022/04/16 14:24:44;;;;;;;2.83;2.50;;;;;;;;;;5000674;28;20500;-67
2022/04/16 14:27:12;;;;;;;3.15;2.58;;;;;;;;;;4998786;28;20061;-68
2022/04/16 14:29:39;;;;;;;4.25;3.22;;;;;;;;;;4997739;28;20089;-68
2022/04/16 14:32:06;;;;;;;3.22;2.58;;;;;;;;;;4999013;28;20559;-68
2022/04/16 14:34:32;;;;;;;3.30;2.78;;;;;;;;;;5000875;28;20055;-67
2022/04/16 14:36:59;;;;;;;4.07;2.42;;;;;;;;;;5001506;28;20050;-68
2022/04/16 14:39:26;;;;;;;3.97;2.60;;;;;;;;;;4997295;28;20101;-67
2022/04/16 14:41:52;;;;;;;3.28;2.30;;;;;;;;;;5002016;28;20444;-66
2022/04/16 14:44:19;;;;;;;3.38;2.60;;;;;;;;;;5003297;28;20054;-67
2022/04/16 14:46:46;;;;;;;2.63;2.10;;;;;;;;;;4988854;28;20593;-67
2022/04/16 14:49:15;;;;;;;3.97;2.45;;;;;;;;;;4994194;28;20045;-66
2022/04/16 14:51:51;;;;;;;5.15;2.88;;;;;;;;;;5004205;28;20089;-72
2022/04/16 14:54:18;;;;;;;3.80;2.53;;;;;;;;;;5011929;28;20050;-73
2022/04/16 14:56:45;;;;;;;2.72;2.45;;;;;;;;;;5009268;28;20077;-73
2022/04/16 14:59:12;;;;;;;5.15;2.47;;;;;;;;;;4998350;28;20107;-74
2022/04/16 15:01:38;;;;;;;3.33;2.53;;;;;;;;;;5002042;28;20053;-76
2022/04/16 15:04:05;;;;;;;2.45;2.00;;;;;;;;;;5015225;28;20046;-72
2022/04/16 15:06:32;;;;;;;3.10;2.53;;;;;;;;;;4999380;28;20054;-72
2022/04/16 15:09:02;;;;;;;3.70;2.38;;;;;;;;;;5002236;28;20042;-73
2022/04/16 15:11:29;;;;;;;4.25;3.00;;;;;;;;;;4997376;28;20076;-72
2022/04/16 15:13:56;;;;;;;4.47;2.85;;;;;;;;;;5002459;28;20575;-66
2022/04/16 15:16:22;;;;;;;3.70;2.58;;;;;;;;;;5000755;28;20046;-77
2022/04/16 15:18:49;;;;;;;4.10;3.38;;;;;;;;;;4996532;28;20051;-75